Time;durP1;ratioP1;P1;durP2;ratioP2;P2;SDS_P1;SDS_P2;PMS_P1;PMS_P2;Temp;Humidity;BMP_temperature;BMP_pressure;BME280_temperature;BME280_humidity;BME280_pressure;Samples;Min_cycle;Max_cycle;Signal;HPM_P1;HPM_P2
2023/03/21 00:00:46;;;;;;;25.30;11.20;;;;;;;4.69;74.87;99385.16;78423;1294;3051572;-64
2023/03/21 00:03:14;;;;;;;32.00;12.70;;;;;;;4.63;74.79;99382.26;79657;1292;3013145;-62
2023/03/21 00:05:48;;;;;;;24.00;11.20;;;;;;;4.56;74.85;99385.47;78454;1294;3058175;-63
2023/03/21 00:08:15;;;;;;;26.60;11.90;;;;;;;4.52;75.20;99388.91;79657;1295;3013710;-65
2023/03/21 00:10:44;;;;;;;24.60;11.80;;;;;;;4.48;75.44;99390.10;79090;1294;3011728;-64
2023/03/21 00:13:11;;;;;;;31.00;13.10;;;;;;;4.46;75.47;99387.90;79766;1293;3013945;-65
2023/03/21 00:15:53;;;;;;;31.30;12.60;;;;;;;4.44;75.69;99383.13;79159;1292;3011629;-65
2023/03/21 00:18:21;;;;;;;25.00;12.70;;;;;;;4.44;75.94;99379.86;78456;1294;3052673;-62
2023/03/21 00:20:58;;;;;;;28.20;12.20;;;;;;;4.44;75.78;99382.80;79650;1294;3011625;-65
2023/03/21 00:23:26;;;;;;;21.40;9.60;;;;;;;4.40;75.87;99380.52;78396;1295;3051384;-64
2023/03/21 00:25:57;;;;;;;17.30;8.80;;;;;;;4.89;74.95;99382.13;79651;1295;3011554;-62
2023/03/21 00:28:26;;;;;;;20.70;9.90;;;;;;;5.48;72.96;99377.22;78442;1293;3049900;-63
2023/03/21 00:30:58;;;;;;;18.40;9.70;;;;;;;5.61;72.74;99380.86;79731;1291;3013785;-62
2023/03/21 00:33:27;;;;;;;22.10;9.30;;;;;;;5.56;72.74;99381.22;78413;1294;3054405;-61
2023/03/21 00:35:54;;;;;;;21.30;10.90;;;;;;;5.44;72.88;99386.06;79621;1294;3013120;-62
2023/03/21 00:38:21;;;;;;;28.80;18.00;;;;;;;5.33;73.38;99385.45;79621;1291;3011864;-61
2023/03/21 00:40:49;;;;;;;45.10;31.40;;;;;;;5.18;73.59;99387.61;78370;1291;3026040;-63
2023/03/21 00:43:18;;;;;;;33.60;20.10;;;;;;;5.05;74.10;99386.73;79709;1292;3013639;-63
2023/03/21 00:45:45;;;;;;;33.10;20.80;;;;;;;4.93;74.53;99384.26;79613;1290;3012215;-63
2023/03/21 00:48:13;;;;;;;30.60;19.30;;;;;;;4.83;74.93;99381.34;78448;1293;3052772;-64
2023/03/21 00:50:44;;;;;;;23.40;13.60;;;;;;;4.70;75.54;99380.79;79730;1294;3013539;-62
2023/03/21 00:53:14;;;;;;;18.20;9.10;;;;;;;4.54;76.38;99380.15;78368;1297;3051581;-62
2023/03/21 00:55:43;;;;;;;19.60;10.60;;;;;;;4.42;77.02;99380.44;79614;1292;3013793;-62
2023/03/21 00:58:11;;;;;;;25.30;11.30;;;;;;;4.28;77.58;99375.54;78413;1294;3029388;-62
2023/03/21 01:00:38;;;;;;;22.80;10.40;;;;;;;4.19;77.96;99371.55;79617;1291;3013829;-61
2023/03/21 01:03:09;;;;;;;18.90;9.20;;;;;;;4.14;78.33;99368.44;79741;1294;3013281;-61
2023/03/21 01:08:27;;;;;;;20.60;7.00;;;;;;;4.60;77.51;99364.85;78400;1291;3070076;-63
2023/03/21 01:10:55;;;;;;;16.70;6.60;;;;;;;5.05;75.84;99366.76;79590;1291;3013458;-62
2023/03/21 01:13:23;;;;;;;15.30;6.50;;;;;;;5.09;75.34;99365.05;79661;1291;3013413;-64
2023/03/21 01:15:53;;;;;;;21.80;7.10;;;;;;;5.02;75.25;99358.23;78520;1292;3053128;-61
2023/03/21 01:18:24;;;;;;;19.90;6.50;;;;;;;4.85;75.79;99357.84;79672;1294;3011459;-62
2023/03/21 01:20:53;;;;;;;16.60;6.90;;;;;;;4.71;76.56;99354.55;78439;1293;3053591;-64
2023/03/21 01:23:19;;;;;;;14.70;6.40;;;;;;;4.54;77.11;99355.01;79718;1294;3012732;-63
2023/03/21 01:25:47;;;;;;;12.10;5.70;;;;;;;4.45;77.63;99357.77;79726;1291;3011512;-62
2023/03/21 01:28:15;;;;;;;12.40;5.50;;;;;;;4.34;78.33;99352.98;78405;1291;3057868;-63
2023/03/21 01:30:45;;;;;;;17.30;6.40;;;;;;;4.29;78.95;99348.83;79599;1292;3011789;-62
2023/03/21 01:33:15;;;;;;;13.20;5.90;;;;;;;4.25;79.19;99351.06;79103;1292;3011504;-63
2023/03/21 01:35:42;;;;;;;23.00;6.70;;;;;;;4.20;79.26;99350.52;79669;1294;3011676;-63
2023/03/21 01:38:09;;;;;;;15.40;5.30;;;;;;;4.16;79.50;99353.98;79586;1295;3011970;-63
2023/03/21 01:40:39;;;;;;;11.00;4.60;;;;;;;4.98;77.66;99354.85;78430;1295;3068688;-64
2023/03/21 01:43:33;;;;;;;15.90;5.20;;;;;;;5.53;74.73;99351.13;78408;1294;3053403;-65
2023/03/21 01:46:09;;;;;;;22.10;6.60;;;;;;;5.60;74.12;99349.60;79657;1291;3011589;-65
2023/03/21 01:49:14;;;;;;;24.40;6.80;;;;;;;5.40;74.64;99345.91;78180;1294;3050464;-64
2023/03/21 01:51:46;;;;;;;19.10;8.90;;;;;;;5.20;74.38;99341.34;79802;1291;3011523;-64
2023/03/21 01:54:23;;;;;;;15.50;7.20;;;;;;;4.98;75.19;99346.92;78387;1294;3050885;-66
2023/03/21 01:56:50;;;;;;;18.10;8.10;;;;;;;4.67;75.96;99344.63;79711;1290;3011724;-64
2023/03/21 01:59:33;;;;;;;26.80;10.30;;;;;;;4.38;77.33;99345.38;78525;1293;3052246;-61
2023/03/21 02:02:25;;;;;;;28.10;11.60;;;;;;;4.09;78.56;99338.96;78408;1294;3068164;-62
2023/03/21 02:05:01;;;;;;;23.90;11.60;;;;;;;3.96;79.51;99342.21;78518;1295;3053026;-63
2023/03/21 02:07:34;;;;;;;28.90;13.40;;;;;;;3.88;80.04;99336.93;79713;1292;3011605;-63
2023/03/21 02:10:09;;;;;;;27.40;12.80;;;;;;;3.87;79.95;99341.32;78468;1294;3049447;-63
2023/03/21 02:12:42;;;;;;;19.00;6.50;;;;;;;3.85;80.30;99338.59;78282;1291;3054992;-63
2023/03/21 02:15:09;;;;;;;15.10;5.70;;;;;;;4.42;79.34;99338.44;79645;1295;3012865;-63
2023/03/21 02:18:16;;;;;;;21.40;7.70;;;;;;;5.01;76.51;99338.30;78543;1294;3053766;-65
2023/03/21 02:21:07;;;;;;;19.30;8.30;;;;;;;5.09;75.37;99335.52;78377;1295;3070539;-65
2023/03/21 02:24:12;;;;;;;19.20;9.30;;;;;;;4.97;75.58;99332.70;78502;1290;3051890;-64
2023/03/21 02:27:02;;;;;;;25.20;10.10;;;;;;;4.71;76.15;99334.77;78606;1293;3056490;-65
2023/03/21 02:29:47;;;;;;;25.60;13.00;;;;;;;4.54;76.84;99334.39;78660;1292;3051083;-68
2023/03/21 02:32:53;;;;;;;41.30;15.50;;;;;;;4.37;77.49;99334.64;78655;1294;3053420;-66
2023/03/21 02:35:34;;;;;;;35.30;13.90;;;;;;;4.12;78.47;99331.94;78492;1294;3051762;-65
2023/03/21 02:38:08;;;;;;;41.80;14.20;;;;;;;3.91;79.74;99335.11;78386;1294;3052950;-65
2023/03/21 02:40:37;;;;;;;24.50;10.80;;;;;;;3.86;80.86;99336.67;79239;1294;3011958;-65
2023/03/21 02:43:29;;;;;;;26.90;12.30;;;;;;;3.77;80.77;99333.70;79846;1294;3013710;-65
2023/03/21 02:46:13;;;;;;;16.30;8.10;;;;;;;3.73;80.85;99333.98;78511;1294;3051606;-65
2023/03/21 02:48:49;;;;;;;25.20;7.40;;;;;;;4.45;79.02;99334.52;78505;1291;3056717;-63
2023/03/21 02:51:16;;;;;;;20.50;8.60;;;;;;;5.10;77.01;99328.71;79715;1291;3011839;-64
2023/03/21 02:53:48;;;;;;;20.70;9.10;;;;;;;4.95;75.88;99330.55;78542;1294;3053689;-67
2023/03/21 02:56:15;;;;;;;26.80;9.80;;;;;;;4.74;76.69;99332.94;79804;1292;3011980;-66
2023/03/21 02:58:45;;;;;;;22.90;9.00;;;;;;;4.61;77.01;99326.48;78493;1295;3051739;-67
2023/03/21 03:01:12;;;;;;;19.70;8.80;;;;;;;4.39;77.91;99326.79;79713;1292;3013505;-66
2023/03/21 03:03:46;;;;;;;21.40;8.40;;;;;;;4.35;77.77;99325.90;78705;1292;3052269;-64
2023/03/21 03:06:19;;;;;;;29.20;11.50;;;;;;;4.22;77.86;99325.14;79832;1291;3015742;-65
2023/03/21 03:08:54;;;;;;;23.70;10.00;;;;;;;4.12;78.17;99325.52;78450;1292;3053575;-64
2023/03/21 03:11:27;;;;;;;27.40;11.40;;;;;;;4.05;78.19;99328.19;79249;1291;3013188;-63
2023/03/21 03:14:04;;;;;;;32.10;9.60;;;;;;;3.78;79.77;99332.45;77998;1293;3012780;-64
2023/03/21 03:16:56;;;;;;;19.60;7.90;;;;;;;3.65;80.95;99329.08;79215;1292;3011344;-63
2023/03/21 03:19:33;;;;;;;16.90;7.70;;;;;;;4.40;79.16;99331.44;78417;1295;3051326;-63
2023/03/21 03:22:16;;;;;;;23.60;10.20;;;;;;;4.95;77.23;99328.30;79645;1294;3012968;-65
2023/03/21 03:24:56;;;;;;;18.60;9.00;;;;;;;4.96;76.47;99328.92;78406;1295;3053550;-60
2023/03/21 03:27:28;;;;;;;26.70;11.70;;;;;;;4.77;76.31;99327.94;78403;1291;3069901;-63
2023/03/21 03:29:56;;;;;;;22.60;12.30;;;;;;;4.49;76.85;99327.11;79780;1291;3011837;-63
2023/03/21 03:32:34;;;;;;;24.90;12.50;;;;;;;4.20;77.90;99328.36;78410;1292;3057145;-63
2023/03/21 03:35:07;;;;;;;28.50;13.40;;;;;;;4.04;78.96;99326.66;78425;1294;3050082;-65
2023/03/21 03:37:36;;;;;;;31.20;11.90;;;;;;;3.99;79.30;99326.85;79612;1292;3013607;-65
2023/03/21 03:40:07;;;;;;;28.40;13.70;;;;;;;3.83;79.94;99328.79;78383;1297;3027008;-64
2023/03/21 03:42:42;;;;;;;32.60;14.40;;;;;;;3.74;80.40;99327.19;79709;1294;3011543;-63
2023/03/21 03:45:19;;;;;;;36.00;14.60;;;;;;;3.71;80.51;99325.73;78578;1294;3052176;-63
2023/03/21 03:47:50;;;;;;;26.30;11.90;;;;;;;3.65;80.44;99324.91;79810;1294;3013720;-64
2023/03/21 03:50:24;;;;;;;24.30;10.70;;;;;;;4.10;79.29;99325.58;78400;1291;3057336;-63
2023/03/21 03:53:04;;;;;;;39.90;14.20;;;;;;;4.62;76.79;99323.65;79817;1294;3011581;-63
2023/03/21 03:55:33;;;;;;;35.40;15.60;;;;;;;4.66;76.04;99322.14;78422;1291;3052600;-62
2023/03/21 03:58:05;;;;;;;;;;;;;;;4.54;76.22;99319.27;79548;1294;3013848;-64
2023/03/21 04:00:33;;;;;;;48.60;15.30;;;;;;;4.43;77.03;99319.88;78331;1294;3051818;-62
2023/03/21 04:02:59;;;;;;;38.90;16.40;;;;;;;4.23;78.46;99325.29;79546;1297;3013639;-64
2023/03/21 04:05:28;;;;;;;40.60;15.30;;;;;;;4.06;78.93;99319.48;79644;1291;3011648;-65
2023/03/21 04:07:56;;;;;;;47.10;14.30;;;;;;;3.86;79.69;99323.33;78393;1294;3056859;-65
2023/03/21 04:10:34;;;;;;;30.00;12.60;;;;;;;3.75;80.47;99321.79;78401;1294;3049795;-64
2023/03/21 04:13:01;;;;;;;31.90;13.00;;;;;;;3.68;81.06;99318.26;79895;1292;3013079;-64
2023/03/21 04:15:37;;;;;;;34.60;14.50;;;;;;;3.48;82.10;99321.84;78468;1294;3054939;-63
2023/03/21 04:18:10;;;;;;;31.60;9.30;;;;;;;3.50;82.16;99322.30;79636;1293;3011414;-65
2023/03/21 04:20:38;;;;;;;27.00;9.80;;;;;;;4.00;80.98;99322.83;78471;1294;3069698;-63
2023/03/21 04:23:06;;;;;;;27.90;11.30;;;;;;;4.50;78.36;99323.06;80062;1289;3015017;-65
2023/03/21 04:25:37;;;;;;;32.90;12.30;;;;;;;4.63;77.45;99322.58;79337;1291;3011521;-67
2023/03/21 04:28:04;;;;;;;32.10;12.00;;;;;;;4.46;78.12;99323.89;79846;1289;3013826;-63
2023/03/21 04:30:48;;;;;;;35.10;12.30;;;;;;;4.17;78.61;99319.40;78365;1294;3050274;-64
2023/03/21 04:33:18;;;;;;;37.10;12.30;;;;;;;4.07;79.84;99318.61;79685;1289;3012910;-63
2023/03/21 04:35:55;;;;;;;37.80;14.50;;;;;;;4.02;79.60;99317.40;78468;1292;3053935;-64
2023/03/21 04:38:29;;;;;;;45.40;17.40;;;;;;;3.82;80.28;99311.86;79711;1289;3012917;-63
2023/03/21 04:41:00;;;;;;;36.50;14.70;;;;;;;3.67;81.01;99312.02;78395;1294;3051733;-65
2023/03/21 04:43:30;;;;;;;43.80;17.20;;;;;;;3.51;81.74;99317.09;79730;1289;3011865;-66
2023/03/21 04:45:58;;;;;;;49.60;20.00;;;;;;;3.38;82.23;99319.08;78410;1294;3049146;-63
2023/03/21 04:48:26;;;;;;;31.10;13.30;;;;;;;3.31;82.37;99318.59;79729;1289;3012972;-63
2023/03/21 04:50:53;;;;;;;41.40;16.30;;;;;;;3.81;81.37;99318.29;79718;1292;3011797;-64
2023/03/21 04:53:23;;;;;;;57.90;22.90;;;;;;;4.29;78.97;99320.20;78505;1295;3052668;-64
2023/03/21 04:55:50;;;;;;;45.10;19.50;;;;;;;4.56;78.06;99315.73;79634;1292;3019252;-63
2023/03/21 04:58:19;;;;;;;58.30;22.10;;;;;;;4.55;77.65;99314.38;79630;1293;3011603;-64
2023/03/21 05:00:47;;;;;;;74.50;26.90;;;;;;;4.30;78.08;99316.53;78369;1294;3050859;-67
2023/03/21 05:03:18;;;;;;;100.80;37.10;;;;;;;4.21;78.77;99315.48;79591;1292;3020741;-63
2023/03/21 05:05:48;;;;;;;102.00;34.70;;;;;;;4.01;79.43;99316.56;78550;1291;3055409;-64
2023/03/21 05:08:15;;;;;;;92.80;33.60;;;;;;;3.99;79.70;99316.13;79626;1294;3013841;-62
2023/03/21 05:10:47;;;;;;;77.60;29.00;;;;;;;3.95;80.12;99319.02;78385;1293;3052311;-63
2023/03/21 05:13:13;;;;;;;84.80;29.90;;;;;;;3.88;80.72;99322.05;79627;1294;3018773;-64
2023/03/21 05:15:40;;;;;;;72.70;27.40;;;;;;;3.86;81.01;99326.80;79625;1292;3012944;-64
2023/03/21 05:18:14;;;;;;;47.60;15.50;;;;;;;3.85;81.64;99330.98;78420;1294;3050598;-64
2023/03/21 05:20:58;;;;;;;70.80;20.60;;;;;;;4.52;79.57;99334.79;78600;1294;3053732;-65
2023/03/21 05:23:25;;;;;;;70.20;25.40;;;;;;;5.05;77.23;99336.73;79978;1293;3012422;-64
2023/03/21 05:25:53;;;;;;;64.30;21.80;;;;;;;5.03;76.37;99336.65;79788;1291;3011631;-63
2023/03/21 05:28:35;;;;;;;56.80;21.30;;;;;;;4.96;76.92;99335.35;78437;1292;3058141;-63
2023/03/21 05:31:03;;;;;;;51.40;19.80;;;;;;;4.90;77.06;99338.89;79668;1295;3012521;-64
2023/03/21 05:33:33;;;;;;;42.60;16.70;;;;;;;4.86;77.39;99339.38;78423;1294;3054071;-64
2023/03/21 05:36:00;;;;;;;45.00;16.00;;;;;;;4.90;77.02;99341.84;79772;1295;3012978;-63
2023/03/21 05:38:32;;;;;;;49.20;18.60;;;;;;;4.64;78.32;99342.48;78392;1295;3054543;-63
2023/03/21 05:40:59;;;;;;;39.80;18.40;;;;;;;4.62;78.81;99341.16;79662;1291;3013501;-63
2023/03/21 05:43:27;;;;;;;43.10;18.00;;;;;;;4.58;79.05;99344.29;79603;1295;3013865;-65
2023/03/21 05:45:58;;;;;;;40.20;18.30;;;;;;;4.57;79.10;99339.63;78461;1293;3051245;-63
2023/03/21 05:48:38;;;;;;;30.60;11.30;;;;;;;4.61;79.27;99342.59;78322;1294;3053567;-64
2023/03/21 05:51:13;;;;;;;29.40;12.00;;;;;;;5.28;77.45;99339.27;79186;1292;3012175;-64
2023/03/21 05:53:39;;;;;;;37.40;17.40;;;;;;;5.84;74.83;99339.55;79941;1291;3012996;-65
2023/03/21 05:56:07;;;;;;;35.00;17.20;;;;;;;5.86;74.05;99340.34;79910;1295;3011869;-65
2023/03/21 05:58:53;;;;;;;47.50;20.70;;;;;;;5.78;74.21;99336.34;78703;1292;3069103;-64
2023/03/21 06:01:23;;;;;;;52.10;21.20;;;;;;;5.57;74.73;99340.16;79985;1289;3011722;-64
2023/03/21 06:03:55;;;;;;;47.10;21.20;;;;;;;5.42;75.56;99340.96;78691;1294;3056123;-64
2023/03/21 06:06:23;;;;;;;56.60;21.80;;;;;;;5.38;75.99;99341.48;79919;1290;3013227;-65
2023/03/21 06:08:56;;;;;;;52.10;22.60;;;;;;;5.35;75.76;99343.32;78663;1292;3054985;-63
2023/03/21 06:11:28;;;;;;;56.30;23.10;;;;;;;5.17;76.42;99342.31;79674;1295;3013785;-63
2023/03/21 06:14:10;;;;;;;50.90;21.50;;;;;;;5.16;76.74;99340.82;78387;1294;3052469;-64
2023/03/21 06:16:40;;;;;;;57.40;22.90;;;;;;;5.16;76.84;99345.33;79584;1295;3011470;-63
2023/03/21 06:19:09;;;;;;;74.40;22.60;;;;;;;5.21;76.77;99343.39;78288;1291;3028107;-63
2023/03/21 06:21:42;;;;;;;53.90;21.70;;;;;;;5.18;76.88;99343.15;79591;1292;3011666;-64
2023/03/21 06:24:10;;;;;;;52.10;23.00;;;;;;;5.22;76.96;99344.39;78496;1295;3049871;-63
2023/03/21 06:26:37;;;;;;;42.00;16.30;;;;;;;5.29;76.94;99343.25;79739;1289;3019037;-63
2023/03/21 06:29:03;;;;;;;35.00;15.50;;;;;;;5.95;75.45;99347.09;79691;1291;3011929;-63
2023/03/21 06:31:31;;;;;;;44.80;18.50;;;;;;;6.57;72.48;99348.14;78359;1295;3026048;-64
2023/03/21 06:34:01;;;;;;;34.70;16.90;;;;;;;6.83;71.28;99349.95;79645;1288;3013843;-64
2023/03/21 06:36:30;;;;;;;44.10;19.50;;;;;;;6.85;71.19;99348.64;78477;1293;3026599;-65
2023/03/21 06:38:57;;;;;;;43.80;20.50;;;;;;;6.83;71.11;99349.24;79773;1289;3014646;-63
2023/03/21 06:41:24;;;;;;;50.70;20.80;;;;;;;6.71;71.64;99352.77;79577;1288;3011700;-63
2023/03/21 06:43:59;;;;;;;44.90;18.50;;;;;;;6.54;71.98;99353.71;78539;1295;3050561;-64
2023/03/21 06:46:26;;;;;;;39.10;17.30;;;;;;;6.55;72.08;99350.38;79782;1294;3013987;-64
2023/03/21 06:48:53;;;;;;;37.10;16.90;;;;;;;6.50;72.37;99348.83;79895;1291;3013386;-64
2023/03/21 06:51:22;;;;;;;45.50;17.60;;;;;;;6.39;72.50;99345.52;78315;1295;3051573;-63
2023/03/21 06:54:02;;;;;;;34.50;16.70;;;;;;;6.37;72.61;99343.70;78377;1294;3058139;-63
2023/03/21 06:56:57;;;;;;;35.10;15.50;;;;;;;6.13;73.63;99344.23;78439;1295;3050918;-65
2023/03/21 06:59:28;;;;;;;36.00;16.80;;;;;;;6.09;74.22;99345.45;79846;1293;3011650;-64
2023/03/21 07:02:00;;;;;;;38.10;15.30;;;;;;;6.11;73.95;99346.60;78463;1294;3048356;-65
2023/03/21 07:04:27;;;;;;;37.00;15.50;;;;;;;5.89;74.50;99347.52;80175;1292;3011901;-63
2023/03/21 07:06:55;;;;;;;31.80;14.30;;;;;;;5.76;74.59;99340.09;81304;1292;3011403;-65
2023/03/21 07:09:26;;;;;;;40.70;15.70;;;;;;;5.75;74.93;99341.85;78793;1295;3052028;-67
2023/03/21 07:11:55;;;;;;;28.30;15.10;;;;;;;5.62;74.98;99345.15;79996;1292;3011625;-65
2023/03/21 07:14:26;;;;;;;33.90;15.40;;;;;;;5.68;75.32;99340.23;78519;1292;3049652;-64
2023/03/21 07:16:53;;;;;;;33.40;13.60;;;;;;;5.74;74.91;99340.67;79668;1289;3013367;-65
2023/03/21 07:19:19;;;;;;;26.60;13.20;;;;;;;5.57;74.55;99343.48;79790;1289;3011476;-67
2023/03/21 07:21:48;;;;;;;34.50;14.10;;;;;;;5.56;75.50;99342.13;78796;1293;3053102;-66
2023/03/21 07:24:15;;;;;;;22.20;9.00;;;;;;;5.64;75.05;99346.46;79673;1294;3013101;-65
2023/03/21 07:26:42;;;;;;;25.10;8.80;;;;;;;6.20;74.16;99345.64;79796;1289;3011546;-66
2023/03/21 07:29:10;;;;;;;26.30;10.70;;;;;;;6.46;72.64;99346.94;78422;1295;3048960;-66
2023/03/21 07:31:39;;;;;;;28.80;10.90;;;;;;;6.54;72.84;99344.16;79882;1289;3012999;-61
2023/03/21 07:34:06;;;;;;;26.60;12.30;;;;;;;6.52;73.10;99346.67;79778;1295;3011875;-63
2023/03/21 07:36:35;;;;;;;25.70;12.30;;;;;;;6.33;73.34;99347.00;78653;1291;3052608;-65
2023/03/21 07:39:03;;;;;;;26.20;12.30;;;;;;;6.08;74.15;99350.38;79852;1293;3014537;-66
2023/03/21 07:41:30;;;;;;;18.90;10.60;;;;;;;5.93;75.20;99348.60;79838;1289;3011647;-59
2023/03/21 07:44:08;;;;;;;23.40;11.60;;;;;;;5.87;75.09;99347.93;78739;1289;3050584;-63
2023/03/21 07:46:35;;;;;;;39.40;14.90;;;;;;;5.73;75.94;99346.45;79649;1289;3013582;-62
2023/03/21 07:49:02;;;;;;;32.70;16.10;;;;;;;5.68;76.97;99344.95;79660;1289;3011655;-63
2023/03/21 07:51:36;;;;;;;41.80;16.30;;;;;;;5.71;76.09;99349.15;78605;1292;3051663;-65
2023/03/21 07:54:02;;;;;;;49.30;20.10;;;;;;;5.51;77.55;99349.98;79813;1289;3013619;-64
2023/03/21 07:56:29;;;;;;;79.90;27.70;;;;;;;5.61;77.90;99359.30;79656;1295;3013720;-62
2023/03/21 07:58:59;;;;;;;68.80;23.00;;;;;;;5.64;78.52;99357.97;78631;1295;3050774;-64
2023/03/21 08:01:26;;;;;;;114.00;35.70;;;;;;;6.29;77.13;99366.30;79662;1295;3012752;-62
2023/03/21 08:03:52;;;;;;;158.10;45.80;;;;;;;6.77;74.83;99365.17;79641;1289;3012993;-62
2023/03/21 08:06:22;;;;;;;134.10;40.00;;;;;;;6.69;74.89;99359.81;78427;1294;3052018;-63
2023/03/21 08:08:49;;;;;;;105.60;31.20;;;;;;;6.56;75.09;99360.06;79724;1295;3020780;-63
2023/03/21 08:11:16;;;;;;;104.40;31.90;;;;;;;6.47;75.07;99355.77;79765;1294;3011883;-64
2023/03/21 08:13:45;;;;;;;97.00;31.50;;;;;;;6.28;75.73;99358.73;78395;1292;3049772;-65
2023/03/21 08:16:12;;;;;;;76.60;28.80;;;;;;;6.31;76.54;99358.21;79728;1291;3013280;-64
2023/03/21 08:18:45;;;;;;;79.30;25.80;;;;;;;6.30;76.79;99355.99;78444;1294;3053177;-64
2023/03/21 08:21:12;;;;;;;72.80;27.40;;;;;;;6.07;77.58;99358.77;79661;1295;3013312;-63
2023/03/21 08:23:40;;;;;;;66.00;23.80;;;;;;;6.09;77.94;99358.84;79742;1289;3013267;-63
2023/03/21 08:26:08;;;;;;;56.80;23.30;;;;;;;6.12;77.75;99359.58;78403;1294;3056175;-63
2023/03/21 08:28:35;;;;;;;38.90;15.10;;;;;;;6.00;79.35;99359.39;79689;1292;3021115;-64
2023/03/21 08:31:08;;;;;;;36.10;15.60;;;;;;;6.67;77.56;99357.24;80119;1289;3011641;-63
2023/03/21 08:33:37;;;;;;;52.40;20.00;;;;;;;7.21;75.63;99351.27;78490;1294;3052142;-64
2023/03/21 08:36:04;;;;;;;46.10;18.60;;;;;;;7.39;75.11;99351.59;79773;1294;3013372;-64
2023/03/21 08:38:35;;;;;;;47.10;22.30;;;;;;;7.24;75.08;99347.64;79224;1294;3011656;-62
2023/03/21 08:41:01;;;;;;;41.20;18.00;;;;;;;7.07;74.93;99346.85;79610;1292;3013686;-64
2023/03/21 08:43:29;;;;;;;38.10;16.90;;;;;;;6.86;75.60;99352.39;79608;1289;3011648;-65
2023/03/21 08:45:57;;;;;;;37.50;15.50;;;;;;;6.94;75.52;99352.20;78340;1295;3053386;-64
2023/03/21 08:48:26;;;;;;;35.80;15.10;;;;;;;7.01;75.25;99354.33;79888;1294;3012741;-65
2023/03/21 08:50:53;;;;;;;33.40;15.10;;;;;;;6.91;75.37;99345.92;79673;1294;3011815;-64
2023/03/21 08:53:21;;;;;;;34.80;14.50;;;;;;;6.74;76.72;99349.48;78364;1293;3068222;-64
2023/03/21 08:55:49;;;;;;;34.60;16.30;;;;;;;6.80;76.79;99346.41;79590;1289;3012986;-64
2023/03/21 08:58:16;;;;;;;30.60;14.10;;;;;;;6.79;75.62;99348.05;79783;1288;3011928;-63
2023/03/21 09:00:45;;;;;;;29.80;14.00;;;;;;;6.77;75.64;99344.47;78386;1294;3052478;-63
2023/03/21 09:03:12;;;;;;;23.10;10.00;;;;;;;6.79;75.90;99344.39;79670;1293;3013441;-65
2023/03/21 09:05:39;;;;;;;22.20;10.20;;;;;;;7.25;74.78;99343.07;79598;1295;3011431;-63
2023/03/21 09:08:07;;;;;;;21.90;10.90;;;;;;;7.74;72.77;99344.48;78588;1291;3069950;-66
2023/03/21 09:10:34;;;;;;;31.70;13.40;;;;;;;8.05;72.19;99339.74;79654;1289;3013392;-62
2023/03/21 09:13:01;;;;;;;30.70;15.00;;;;;;;7.95;72.16;99342.36;79690;1294;3011766;-62
2023/03/21 09:15:32;;;;;;;29.50;13.70;;;;;;;7.93;71.70;99337.89;78445;1294;3054219;-65
2023/03/21 09:18:11;;;;;;;70.30;22.60;;;;;;;7.75;72.09;99335.33;79727;1294;3011934;-62
2023/03/21 09:20:43;;;;;;;60.70;19.90;;;;;;;7.52;72.69;99337.04;78571;1295;3052664;-63
2023/03/21 09:23:11;;;;;;;56.40;21.10;;;;;;;7.55;72.47;99336.91;79675;1292;3012202;-65
2023/03/21 09:25:43;;;;;;;65.80;23.60;;;;;;;7.53;72.46;99338.91;78456;1290;3027759;-63
2023/03/21 09:28:12;;;;;;;48.90;19.90;;;;;;;7.50;73.06;99336.61;79614;1291;3011629;-65
2023/03/21 09:30:40;;;;;;;51.10;19.40;;;;;;;7.60;72.25;99337.01;78547;1293;3050689;-63
2023/03/21 09:33:18;;;;;;;45.60;18.50;;;;;;;7.60;72.51;99333.17;79689;1292;3013616;-64
2023/03/21 09:35:45;;;;;;;44.80;17.90;;;;;;;7.68;72.44;99333.08;78466;1295;3052973;-63
2023/03/21 09:38:12;;;;;;;49.80;19.10;;;;;;;7.91;71.95;99335.05;79681;1294;3013294;-64
2023/03/21 09:41:04;;;;;;;48.50;19.60;;;;;;;8.15;71.18;99334.16;79679;1294;3011977;-61
2023/03/21 09:43:57;;;;;;;42.10;17.60;;;;;;;8.18;70.22;99338.36;78876;1295;3056954;-62
2023/03/21 09:46:33;;;;;;;47.00;17.10;;;;;;;8.23;69.89;99335.66;78686;1293;3051118;-62
2023/03/21 09:49:08;;;;;;;41.80;16.20;;;;;;;8.32;69.77;99330.85;79710;1304;3011778;-67
2023/03/21 09:51:40;;;;;;;39.10;16.40;;;;;;;8.45;69.11;99332.07;78525;1293;3049916;-64
2023/03/21 09:54:32;;;;;;;33.80;13.80;;;;;;;8.51;68.76;99328.45;79871;1303;3013325;-63
2023/03/21 09:57:32;;;;;;;28.60;13.40;;;;;;;8.65;68.21;99330.63;78425;1290;3068407;-61
2023/03/21 10:00:08;;;;;;;33.60;14.60;;;;;;;8.69;67.69;99329.05;78405;1292;3053187;-64
2023/03/21 10:02:45;;;;;;;30.30;14.80;;;;;;;8.73;67.82;99325.52;78504;1294;3057237;-63
2023/03/21 10:05:23;;;;;;;36.20;13.20;;;;;;;8.68;67.48;99323.52;79694;1291;3011451;-63
2023/03/21 10:08:18;;;;;;;29.30;12.80;;;;;;;8.70;67.35;99321.29;78420;1294;3052647;-63
2023/03/21 10:10:52;;;;;;;25.50;12.80;;;;;;;8.72;67.42;99327.11;78483;1294;3050056;-64
2023/03/21 10:13:35;;;;;;;39.70;13.60;;;;;;;8.84;67.96;99319.31;78439;1295;3053345;-63
2023/03/21 10:16:12;;;;;;;35.40;14.10;;;;;;;8.95;67.85;99322.20;79834;1294;3011928;-64
2023/03/21 10:18:41;;;;;;;32.30;14.30;;;;;;;9.05;67.39;99318.30;78420;1294;3070323;-64
2023/03/21 10:21:21;;;;;;;38.00;15.60;;;;;;;9.18;67.51;99319.16;79704;1294;3011780;-64
2023/03/21 10:23:51;;;;;;;31.40;14.60;;;;;;;9.18;67.53;99317.05;78446;1295;3058994;-63
2023/03/21 10:26:19;;;;;;;34.30;13.70;;;;;;;9.38;66.54;99315.73;79697;1295;3012572;-65
2023/03/21 10:28:47;;;;;;;27.00;13.10;;;;;;;9.60;65.99;99306.77;79982;1292;3011983;-64
2023/03/21 10:31:17;;;;;;;43.70;14.90;;;;;;;9.74;65.51;99311.55;78384;1295;3052494;-63
2023/03/21 10:33:45;;;;;;;37.10;15.40;;;;;;;9.83;65.11;99309.23;79780;1295;3012007;-64
2023/03/21 10:36:19;;;;;;;27.20;14.50;;;;;;;9.98;64.99;99313.11;78436;1295;3027103;-62
2023/03/21 10:38:48;;;;;;;33.80;15.10;;;;;;;9.99;65.07;99315.46;79575;1292;3011779;-62
2023/03/21 10:41:16;;;;;;;32.00;14.10;;;;;;;10.15;64.22;99310.46;78421;1295;3056144;-64
2023/03/21 10:43:44;;;;;;;39.20;16.90;;;;;;;10.25;64.02;99311.27;79649;1292;3013137;-62
2023/03/21 10:46:22;;;;;;;32.40;17.40;;;;;;;10.21;64.27;99310.47;79914;1289;3011569;-62
2023/03/21 10:48:51;;;;;;;29.20;14.10;;;;;;;10.20;63.57;99307.56;78645;1294;3051401;-64
2023/03/21 10:51:29;;;;;;;24.80;12.10;;;;;;;10.32;63.17;99301.01;79610;1294;3011494;-63
2023/03/21 10:53:58;;;;;;;27.90;11.60;;;;;;;10.43;62.90;99305.61;78489;1294;3070351;-67
2023/03/21 10:56:26;;;;;;;27.30;12.40;;;;;;;10.61;62.87;99296.61;79727;1292;3013474;-62
2023/03/21 10:58:58;;;;;;;21.80;10.10;;;;;;;10.69;62.11;99293.48;79147;1295;3011595;-62
2023/03/21 11:01:44;;;;;;;21.00;10.10;;;;;;;10.60;61.08;99297.38;79700;1295;3011643;-64
2023/03/21 11:04:19;;;;;;;23.00;9.80;;;;;;;10.71;61.34;99294.55;78363;1294;3051136;-62
2023/03/21 11:07:00;;;;;;;29.60;9.70;;;;;;;10.66;60.69;99293.50;79216;1295;3011450;-62
2023/03/21 11:09:45;;;;;;;18.80;9.80;;;;;;;10.78;61.02;99288.54;78354;1294;3054263;-64
2023/03/21 11:12:18;;;;;;;20.70;9.40;;;;;;;10.90;60.24;99285.13;78467;1294;3054086;-64
2023/03/21 11:14:46;;;;;;;19.10;8.00;;;;;;;10.92;59.80;99285.90;79658;1294;3013174;-63
2023/03/21 11:17:15;;;;;;;19.10;8.00;;;;;;;11.03;59.38;99282.69;79230;1291;3013557;-65
2023/03/21 11:20:08;;;;;;;17.60;8.40;;;;;;;11.23;59.49;99283.30;79697;1289;3013353;-64
2023/03/21 11:22:38;;;;;;;18.70;8.70;;;;;;;11.48;58.93;99279.78;78549;1292;3054745;-63
2023/03/21 11:25:10;;;;;;;14.20;7.60;;;;;;;11.28;57.89;99285.08;79786;1295;3011950;-64
2023/03/21 11:27:50;;;;;;;12.80;7.30;;;;;;;11.62;57.08;99273.37;78450;1295;3052052;-63
2023/03/21 11:30:22;;;;;;;12.10;6.50;;;;;;;11.84;56.30;99274.70;78351;1295;3053090;-64
2023/03/21 11:32:53;;;;;;;;;;;;;;;11.99;55.40;99275.27;79793;1295;3011704;-64
2023/03/21 11:35:24;;;;;;;14.00;7.00;;;;;;;12.04;55.13;99273.35;78516;1294;3051186;-64
2023/03/21 11:37:58;;;;;;;15.10;7.20;;;;;;;12.15;55.16;99273.98;78412;1289;3058500;-64